TimeCDT,TemperatureF,Dew PointF,Humidity,Sea Level PressureIn,VisibilityMPH,Wind Direction,Wind SpeedMPH,Gust SpeedMPH,PrecipitationIn,Events,Conditions,WindDirDegrees,DateUTC
12:52 AM,69.1,62.1,78,29.93,10.0,ESE,4.6,-,N/A,,Clear,120,2012-08-07 05:52:00
1:52 AM,66.9,61.0,81,29.92,10.0,East,5.8,-,N/A,,Clear,100,2012-08-07 06:52:00
2:52 AM,66.0,60.1,81,29.92,10.0,ESE,4.6,-,N/A,,Clear,110,2012-08-07 07:52:00
3:52 AM,68.0,60.1,76,29.93,10.0,East,4.6,-,N/A,,Clear,80,2012-08-07 08:52:00
4:52 AM,63.0,60.1,90,29.93,10.0,Calm,Calm,-,N/A,,Clear,0,2012-08-07 09:52:00
5:52 AM,64.0,60.1,87,29.92,10.0,ESE,5.8,-,N/A,,Clear,120,2012-08-07 10:52:00
6:52 AM,64.0,59.0,84,29.93,10.0,ESE,4.6,-,N/A,,Clear,120,2012-08-07 11:52:00
7:52 AM,69.1,60.1,73,29.94,10.0,Calm,Calm,-,N/A,,Clear,0,2012-08-07 12:52:00
8:52 AM,75.0,62.1,64,29.94,10.0,Calm,Calm,-,N/A,,Clear,0,2012-08-07 13:52:00
9:52 AM,80.1,63.0,56,29.95,10.0,Calm,Calm,-,N/A,,Clear,0,2012-08-07 14:52:00
10:52 AM,84.0,61.0,46,29.96,10.0,Calm,Calm,-,N/A,,Clear,0,2012-08-07 15:52:00
11:52 AM,88.0,61.0,40,29.95,10.0,ESE,5.8,-,N/A,,Clear,110,2012-08-07 16:52:00
12:52 PM,90.0,63.0,40,29.94,10.0,Variable,6.9,-,N/A,,Clear,0,2012-08-07 17:52:00
1:52 PM,91.9,66.0,42,29.93,10.0,East,8.1,-,N/A,,Clear,90,2012-08-07 18:52:00
2:52 PM,93.0,68.0,44,29.93,10.0,Variable,6.9,16.1,N/A,,Clear,0,2012-08-07 19:52:00
3:52 PM,93.0,69.1,45,29.92,10.0,SE,8.1,-,N/A,,Clear,130,2012-08-07 20:52:00
4:52 PM,93.9,69.1,44,29.92,10.0,ESE,8.1,-,N/A,,Clear,110,2012-08-07 21:52:00
5:52 PM,91.9,69.1,47,29.91,10.0,East,9.2,-,N/A,,Clear,80,2012-08-07 22:52:00
6:52 PM,90.0,71.1,54,29.91,10.0,East,6.9,-,N/A,,Clear,80,2012-08-07 23:52:00
7:52 PM,89.1,64.9,45,29.91,10.0,ENE,11.5,-,N/A,,Clear,60,2012-08-08 00:52:00
8:52 PM,86.0,62.1,44,29.91,10.0,ENE,11.5,-,N/A,,Clear,60,2012-08-08 01:52:00
9:52 PM,82.0,64.0,54,29.94,10.0,ENE,8.1,-,N/A,,Clear,70,2012-08-08 02:52:00
10:52 PM,78.1,66.0,66,29.95,10.0,East,4.6,-,N/A,,Mostly Cloudy,80,2012-08-08 03:52:00
11:52 PM,78.1,66.0,66,29.94,10.0,East,9.2,-,N/A,,Clear,90,2012-08-08 04:52:00